sensor_id;sensor_type;location;lat;lon;timestamp;P1;durP1;ratioP1;P2;durP2;ratioP2
7883;SDS011;3987;51.458;7.238;2023-08-12T00:04:13;27.87;;;24.53;;
7883;SDS011;3987;51.458;7.238;2023-08-12T00:19:14;28.30;;;24.27;;
7883;SDS011;3987;51.458;7.238;2023-08-12T00:34:15;26.97;;;21.63;;
7883;SDS011;3987;51.458;7.238;2023-08-12T00:49:17;24.93;;;21.30;;
7883;SDS011;3987;51.458;7.238;2023-08-12T01:04:17;21.83;;;19.23;;
7883;SDS011;3987;51.458;7.238;2023-08-12T01:19:22;24.10;;;19.90;;
7883;SDS011;3987;51.458;7.238;2023-08-12T01:34:33;29.57;;;21.87;;
7883;SDS011;3987;51.458;7.238;2023-08-12T01:50:11;35.10;;;27.80;;
7883;SDS011;3987;51.458;7.238;2023-08-12T02:05:12;39.97;;;28.10;;
7883;SDS011;3987;51.458;7.238;2023-08-12T02:20:13;39.33;;;29.93;;
7883;SDS011;3987;51.458;7.238;2023-08-12T02:35:13;36.87;;;28.37;;
7883;SDS011;3987;51.458;7.238;2023-08-12T02:50:14;31.80;;;24.73;;
7883;SDS011;3987;51.458;7.238;2023-08-12T03:05:14;32.67;;;23.53;;
7883;SDS011;3987;51.458;7.238;2023-08-12T03:20:15;32.77;;;23.90;;
7883;SDS011;3987;51.458;7.238;2023-08-12T03:35:16;29.08;;;24.52;;
7883;SDS011;3987;51.458;7.238;2023-08-12T03:50:17;28.43;;;23.30;;
7883;SDS011;3987;51.458;7.238;2023-08-12T04:05:18;27.23;;;22.77;;
7883;SDS011;3987;51.458;7.238;2023-08-12T04:20:18;26.57;;;22.43;;
7883;SDS011;3987;51.458;7.238;2023-08-12T04:35:19;23.67;;;21.07;;
7883;SDS011;3987;51.458;7.238;2023-08-12T04:50:20;21.73;;;19.63;;
7883;SDS011;3987;51.458;7.238;2023-08-12T05:05:20;21.57;;;18.63;;
7883;SDS011;3987;51.458;7.238;2023-08-12T05:20:21;19.07;;;17.30;;
7883;SDS011;3987;51.458;7.238;2023-08-12T05:35:22;16.93;;;15.30;;
7883;SDS011;3987;51.458;7.238;2023-08-12T05:50:22;13.77;;;12.77;;
7883;SDS011;3987;51.458;7.238;2023-08-12T06:05:23;13.73;;;12.67;;
7883;SDS011;3987;51.458;7.238;2023-08-12T06:20:24;10.57;;;10.07;;
7883;SDS011;3987;51.458;7.238;2023-08-12T06:35:24;10.40;;;9.47;;
7883;SDS011;3987;51.458;7.238;2023-08-12T06:50:25;7.83;;;7.07;;
7883;SDS011;3987;51.458;7.238;2023-08-12T07:05:25;7.30;;;6.90;;
7883;SDS011;3987;51.458;7.238;2023-08-12T07:20:26;6.47;;;6.07;;
7883;SDS011;3987;51.458;7.238;2023-08-12T07:35:27;7.23;;;6.90;;
7883;SDS011;3987;51.458;7.238;2023-08-12T07:50:27;5.50;;;5.30;;
7883;SDS011;3987;51.458;7.238;2023-08-12T08:05:27;5.23;;;4.40;;
7883;SDS011;3987;51.458;7.238;2023-08-12T08:20:28;4.00;;;3.80;;
7883;SDS011;3987;51.458;7.238;2023-08-12T08:35:28;4.40;;;4.30;;
7883;SDS011;3987;51.458;7.238;2023-08-12T08:50:29;6.90;;;6.50;;
7883;SDS011;3987;51.458;7.238;2023-08-12T09:05:31;6.63;;;6.33;;
7883;SDS011;3987;51.458;7.238;2023-08-12T09:20:32;6.90;;;6.80;;
7883;SDS011;3987;51.458;7.238;2023-08-12T09:35:38;5.27;;;5.17;;
7883;SDS011;3987;51.458;7.238;2023-08-12T09:50:40;4.00;;;3.90;;
7883;SDS011;3987;51.458;7.238;2023-08-12T10:05:42;3.50;;;2.27;;
7883;SDS011;3987;51.458;7.238;2023-08-12T10:20:46;1.70;;;1.70;;
7883;SDS011;3987;51.458;7.238;2023-08-12T10:35:48;1.50;;;1.50;;
7883;SDS011;3987;51.458;7.238;2023-08-12T10:50:51;0.80;;;0.80;;
7883;SDS011;3987;51.458;7.238;2023-08-12T11:05:53;1.27;;;0.70;;
7883;SDS011;3987;51.458;7.238;2023-08-12T11:20:56;1.03;;;1.03;;
7883;SDS011;3987;51.458;7.238;2023-08-12T11:35:57;1.40;;;1.40;;
7883;SDS011;3987;51.458;7.238;2023-08-12T11:50:58;0.60;;;0.60;;
7883;SDS011;3987;51.458;7.238;2023-08-12T12:06:00;0.50;;;0.50;;
7883;SDS011;3987;51.458;7.238;2023-08-12T12:21:00;0.57;;;0.57;;
7883;SDS011;3987;51.458;7.238;2023-08-12T12:36:01;0.80;;;0.80;;
7883;SDS011;3987;51.458;7.238;2023-08-12T12:51:01;0.67;;;0.67;;
7883;SDS011;3987;51.458;7.238;2023-08-12T13:06:02;1.00;;;1.00;;
7883;SDS011;3987;51.458;7.238;2023-08-12T13:21:02;3.13;;;3.03;;
7883;SDS011;3987;51.458;7.238;2023-08-12T13:36:05;3.47;;;3.47;;
7883;SDS011;3987;51.458;7.238;2023-08-12T13:51:06;5.23;;;5.13;;
7883;SDS011;3987;51.458;7.238;2023-08-12T14:06:09;10.70;;;10.03;;
7883;SDS011;3987;51.458;7.238;2023-08-12T14:21:10;14.63;;;13.40;;
7883;SDS011;3987;51.458;7.238;2023-08-12T14:36:10;9.93;;;9.53;;
7883;SDS011;3987;51.458;7.238;2023-08-12T14:51:11;6.30;;;5.97;;
7883;SDS011;3987;51.458;7.238;2023-08-12T15:06:11;4.77;;;4.67;;
7883;SDS011;3987;51.458;7.238;2023-08-12T15:21:13;13.57;;;12.77;;
7883;SDS011;3987;51.458;7.238;2023-08-12T15:36:16;11.17;;;10.57;;
7883;SDS011;3987;51.458;7.238;2023-08-12T15:51:16;8.80;;;8.47;;
7883;SDS011;3987;51.458;7.238;2023-08-12T16:06:17;6.53;;;6.10;;
7883;SDS011;3987;51.458;7.238;2023-08-12T16:21:18;3.50;;;3.40;;
7883;SDS011;3987;51.458;7.238;2023-08-12T16:36:18;3.07;;;2.73;;
7883;SDS011;3987;51.458;7.238;2023-08-12T16:51:19;3.70;;;2.40;;
7883;SDS011;3987;51.458;7.238;2023-08-12T17:21:24;2.60;;;2.40;;
7883;SDS011;3987;51.458;7.238;2023-08-12T17:36:24;2.27;;;2.17;;
7883;SDS011;3987;51.458;7.238;2023-08-12T17:51:24;4.50;;;2.53;;
7883;SDS011;3987;51.458;7.238;2023-08-12T18:06:26;3.10;;;2.83;;
7883;SDS011;3987;51.458;7.238;2023-08-12T18:21:28;3.53;;;3.23;;
7883;SDS011;3987;51.458;7.238;2023-08-12T18:36:29;3.77;;;3.50;;
7883;SDS011;3987;51.458;7.238;2023-08-12T18:51:30;4.63;;;4.33;;
7883;SDS011;3987;51.458;7.238;2023-08-12T19:06:30;5.83;;;5.33;;
7883;SDS011;3987;51.458;7.238;2023-08-12T19:21:31;5.50;;;5.10;;
7883;SDS011;3987;51.458;7.238;2023-08-12T19:36:31;4.73;;;4.53;;
7883;SDS011;3987;51.458;7.238;2023-08-12T19:51:32;6.53;;;6.03;;
7883;SDS011;3987;51.458;7.238;2023-08-12T20:06:33;7.47;;;5.40;;
7883;SDS011;3987;51.458;7.238;2023-08-12T20:21:33;6.00;;;5.53;;
7883;SDS011;3987;51.458;7.238;2023-08-12T20:36:34;6.27;;;5.07;;
7883;SDS011;3987;51.458;7.238;2023-08-12T20:51:34;4.77;;;4.50;;
7883;SDS011;3987;51.458;7.238;2023-08-12T21:06:35;5.23;;;4.80;;
7883;SDS011;3987;51.458;7.238;2023-08-12T21:21:35;4.77;;;4.37;;
7883;SDS011;3987;51.458;7.238;2023-08-12T21:36:36;4.43;;;4.23;;
7883;SDS011;3987;51.458;7.238;2023-08-12T21:51:36;5.07;;;4.70;;
7883;SDS011;3987;51.458;7.238;2023-08-12T22:06:37;7.70;;;5.13;;
7883;SDS011;3987;51.458;7.238;2023-08-12T22:21:37;6.20;;;4.47;;
7883;SDS011;3987;51.458;7.238;2023-08-12T22:36:38;4.70;;;4.30;;
7883;SDS011;3987;51.458;7.238;2023-08-12T22:51:39;4.93;;;4.70;;
7883;SDS011;3987;51.458;7.238;2023-08-12T23:06:39;5.43;;;4.93;;
7883;SDS011;3987;51.458;7.238;2023-08-12T23:21:40;5.10;;;4.57;;
7883;SDS011;3987;51.458;7.238;2023-08-12T23:36:40;7.67;;;4.37;;
7883;SDS011;3987;51.458;7.238;2023-08-12T23:51:41;4.50;;;4.23;;
